createdAt,value
2019-04-05T00:01:21.208Z,39.10
2019-04-05T00:03:59.429Z,39.20
2019-04-05T00:06:39.201Z,39.30
2019-04-05T00:09:18.394Z,39.30
2019-04-05T00:11:53.924Z,39.50
2019-04-05T00:14:38.452Z,39.40
2019-04-05T00:17:21.753Z,39.40
2019-04-05T00:19:57.404Z,39.30
2019-04-05T00:22:38.401Z,39.40
2019-04-05T00:25:16.008Z,39.40
2019-04-05T00:27:51.563Z,39.40
2019-04-05T00:30:30.224Z,39.60
2019-04-05T00:33:06.870Z,39.50
2019-04-05T00:35:46.591Z,39.40
2019-04-05T00:38:23.861Z,39.60
2019-04-05T00:41:03.410Z,39.50
2019-04-05T00:43:46.573Z,39.50
2019-04-05T00:46:23.578Z,39.60
2019-04-05T00:49:02.220Z,39.60
2019-04-05T00:51:40.045Z,39.70
2019-04-05T00:54:15.791Z,39.80
2019-04-05T00:56:56.531Z,39.80
2019-04-05T00:59:36.787Z,40.00
2019-04-05T01:02:20.772Z,40.00
2019-04-05T01:04:59.150Z,40.10
2019-04-05T01:07:36.588Z,40.20
2019-04-05T01:10:18.644Z,40.30
2019-04-05T01:12:58.460Z,40.40
2019-04-05T01:15:40.969Z,40.50
2019-04-05T01:18:14.888Z,40.60
2019-04-05T01:20:52.025Z,40.60
2019-04-05T01:23:35.705Z,40.70
2019-04-05T01:26:26.941Z,40.80
2019-04-05T01:29:04.933Z,40.80
2019-04-05T01:31:45.839Z,40.80
2019-04-05T01:34:33.026Z,41.00
2019-04-05T01:37:08.550Z,41.00
2019-04-05T01:39:44.413Z,40.90
2019-04-05T01:42:21.612Z,40.90
2019-04-05T01:44:58.673Z,41.20
2019-04-05T01:47:37.080Z,41.10
2019-04-05T01:50:12.895Z,41.20
2019-04-05T01:52:55.521Z,41.20
2019-04-05T01:55:43.444Z,41.20
2019-04-05T01:58:20.889Z,41.80
2019-04-05T02:01:03.683Z,41.10
2019-04-05T02:03:41.699Z,41.10
2019-04-05T02:06:27.035Z,41.10
2019-04-05T02:09:14.660Z,41.10
2019-04-05T02:11:44.066Z,41.20
2019-04-05T02:14:23.233Z,41.30
2019-04-05T02:17:07.227Z,41.30
2019-04-05T02:19:49.693Z,41.20
2019-04-05T02:22:28.824Z,41.30
2019-04-05T02:25:05.848Z,41.30
2019-04-05T02:27:43.652Z,41.30
2019-04-05T02:30:20.048Z,41.30
2019-04-05T02:32:59.182Z,41.40
2019-04-05T02:35:38.663Z,41.40
2019-04-05T02:38:12.394Z,41.50
2019-04-05T02:40:51.038Z,41.50
2019-04-05T02:43:31.848Z,41.50
2019-04-05T02:46:23.177Z,41.60
2019-04-05T02:48:50.670Z,41.60
2019-04-05T02:51:33.007Z,41.60
2019-04-05T02:54:14.830Z,41.70
2019-04-05T02:56:55.772Z,41.80
2019-04-05T02:59:42.096Z,41.90
2019-04-05T03:02:27.438Z,42.30
2019-04-05T03:05:16.570Z,42.00
2019-04-05T03:07:58.310Z,41.90
2019-04-05T03:10:58.565Z,42.00
2019-04-05T03:13:42.107Z,42.10
2019-04-05T03:16:21.270Z,42.20
2019-04-05T03:19:07.956Z,42.40
2019-04-05T03:21:48.928Z,42.40
2019-04-05T03:24:27.971Z,42.40
2019-04-05T03:27:07.305Z,42.50
2019-04-05T03:29:48.205Z,42.60
2019-04-05T03:32:24.302Z,42.60
2019-04-05T03:35:07.075Z,42.60
2019-04-05T03:37:47.320Z,42.70
2019-04-05T03:40:33.106Z,42.70
2019-04-05T03:43:08.815Z,42.80
2019-04-05T03:45:49.307Z,42.80
2019-04-05T03:48:26.118Z,42.80
2019-04-05T03:51:01.827Z,42.80
2019-04-05T03:53:46.420Z,42.80
2019-04-05T03:56:27.625Z,43.00
2019-04-05T03:59:07.530Z,43.00
2019-04-05T04:01:43.140Z,43.00
2019-04-05T04:04:27.255Z,43.10
2019-04-05T04:07:06.531Z,43.10
2019-04-05T04:09:42.141Z,43.40
2019-04-05T04:12:25.991Z,43.30
2019-04-05T04:15:16.213Z,43.50
2019-04-05T04:17:57.980Z,43.50
2019-04-05T04:20:40.753Z,43.70
2019-04-05T04:23:21.023Z,43.80
2019-04-05T04:25:56.803Z,44.00
2019-04-05T04:28:36.881Z,44.10
2019-04-05T04:31:14.960Z,44.20
2019-04-05T04:33:55.021Z,44.20
2019-04-05T04:36:30.909Z,44.40
2019-04-05T04:39:09.007Z,44.40
2019-04-05T04:41:46.218Z,44.40
2019-04-05T04:44:22.001Z,44.50
2019-04-05T04:46:57.866Z,44.60
2019-04-05T04:49:34.259Z,44.70
2019-04-05T04:52:10.128Z,44.70
2019-04-05T04:54:45.922Z,44.50
2019-04-05T04:57:21.514Z,44.90
2019-04-05T05:00:03.273Z,44.80
2019-04-05T05:02:51.523Z,44.90
2019-04-05T05:05:28.057Z,44.90
2019-04-05T05:08:05.363Z,44.90
2019-04-05T05:10:57.041Z,45.00
2019-04-05T05:13:46.466Z,45.00
2019-04-05T05:17:20.793Z,45.10
2019-04-05T05:20:07.854Z,45.10
2019-04-05T05:23:15.618Z,45.00
2019-04-05T05:26:05.589Z,45.10
2019-04-05T05:28:43.888Z,45.00
2019-04-05T05:31:38.281Z,45.10
2019-04-05T05:34:32.906Z,45.20
2019-04-05T05:37:22.067Z,45.20
2019-04-05T05:40:02.487Z,45.30
2019-04-05T05:42:42.893Z,45.30
2019-04-05T05:45:35.860Z,45.50
2019-04-05T05:48:36.543Z,45.50
2019-04-05T05:51:17.707Z,45.40
2019-04-05T05:53:55.764Z,45.40
2019-04-05T05:56:50.848Z,45.60
2019-04-05T06:00:02.093Z,45.70
2019-04-05T06:23:11.253Z,44.70
2019-04-05T06:29:53.614Z,44.30
2019-04-05T06:32:38.148Z,44.20
2019-04-05T06:52:43.872Z,44.40
2019-04-05T07:20:52.519Z,44.20
2019-04-05T07:31:39.341Z,44.40
2019-04-05T07:35:34.237Z,44.40
2019-04-05T08:16:45.560Z,44.20
2019-04-05T12:22:27.969Z,35.50
2019-04-05T12:26:04.124Z,35.50
2019-04-05T12:29:26.024Z,35.30
2019-04-05T12:41:24.317Z,34.40
2019-04-05T12:48:46.373Z,34.00
2019-04-05T12:55:51.663Z,33.90
2019-04-05T12:59:18.808Z,33.90
2019-04-05T13:02:08.570Z,33.60
2019-04-05T13:04:51.565Z,33.60
2019-04-05T13:11:25.916Z,33.20
2019-04-05T13:34:10.857Z,32.90
2019-04-05T13:36:59.344Z,32.80
2019-04-05T13:40:06.279Z,32.70
2019-04-05T13:55:03.004Z,33.10
2019-04-05T13:59:02.326Z,32.90
2019-04-05T14:04:53.957Z,32.70
2019-04-05T14:12:02.207Z,32.70
2019-04-05T14:15:15.555Z,32.70
2019-04-05T14:18:27.746Z,33.00
2019-04-05T14:21:07.086Z,32.80
2019-04-05T14:27:03.088Z,32.60
2019-04-05T14:29:47.630Z,32.40
2019-04-05T14:32:51.456Z,32.40
2019-04-05T14:35:56.983Z,32.30
2019-04-05T14:38:48.004Z,32.40
2019-04-05T14:41:23.251Z,32.40
2019-04-05T14:44:09.801Z,32.30
2019-04-05T14:47:04.105Z,32.20
2019-04-05T14:50:18.009Z,32.20
2019-04-05T14:53:04.424Z,32.30
2019-04-05T14:55:42.148Z,32.40
2019-04-05T14:58:22.181Z,32.50
2019-04-05T15:01:05.469Z,32.80
2019-04-05T15:03:41.978Z,32.80
2019-04-05T15:06:22.360Z,33.00
2019-04-05T15:09:04.410Z,33.20
2019-04-05T15:11:45.767Z,33.20
2019-04-05T15:14:22.020Z,33.20
2019-04-05T15:17:02.952Z,33.30
2019-04-05T15:19:42.328Z,33.30
2019-04-05T15:22:20.446Z,33.30
2019-04-05T15:25:06.432Z,33.20
2019-04-05T15:27:45.694Z,33.40
2019-04-05T15:30:26.439Z,33.50
2019-04-05T15:33:08.222Z,33.40
2019-04-05T15:35:48.593Z,33.40
2019-04-05T15:38:31.337Z,33.40
2019-04-05T15:41:10.422Z,33.50
2019-04-05T15:43:53.156Z,34.10
2019-04-05T15:46:37.718Z,33.50
2019-04-05T15:49:17.146Z,33.60
2019-04-05T15:51:58.890Z,33.70
2019-04-05T15:54:43.030Z,33.80
2019-04-05T15:57:22.487Z,33.90
2019-04-05T15:59:59.093Z,34.00
2019-04-05T16:02:42.976Z,34.00
2019-04-05T16:05:21.655Z,34.00
2019-04-05T16:07:57.195Z,34.10
2019-04-05T16:10:33.933Z,34.10
2019-04-05T16:13:12.813Z,34.10
2019-04-05T16:15:55.901Z,34.00
2019-04-05T16:18:37.017Z,34.10
2019-04-05T16:21:41.986Z,34.10
2019-04-05T16:40:26.147Z,34.60
2019-04-05T16:43:19.208Z,34.80
2019-04-05T16:46:07.191Z,34.90
2019-04-05T16:49:42.432Z,35.70
2019-04-05T16:52:50.171Z,35.20
2019-04-05T16:56:05.065Z,35.20
2019-04-05T17:06:17.198Z,35.60
2019-04-05T17:09:32.668Z,35.70
2019-04-05T17:12:50.084Z,35.70
2019-04-05T17:16:23.929Z,35.90
2019-04-05T17:19:49.140Z,36.00
2019-04-05T17:23:23.163Z,36.40
2019-04-05T17:26:44.762Z,36.40
2019-04-05T17:37:33.056Z,36.80
2019-04-05T17:41:38.291Z,36.80
2019-04-05T17:45:19.917Z,36.90
2019-04-05T19:11:33.398Z,37.50
2019-04-05T19:14:44.037Z,37.50
2019-04-05T19:18:25.766Z,37.60
2019-04-05T19:25:35.870Z,38.20
2019-04-05T19:28:47.493Z,37.70
2019-04-05T19:50:20.901Z,37.90
2019-04-05T19:53:24.493Z,38.00
2019-04-05T19:56:45.796Z,38.00
2019-04-05T19:59:29.355Z,38.20
2019-04-05T20:02:18.036Z,38.00
2019-04-05T20:04:59.337Z,38.10
2019-04-05T20:07:48.156Z,38.20
2019-04-05T20:10:40.561Z,38.20
2019-04-05T20:13:38.258Z,38.30
2019-04-05T20:16:19.816Z,38.30
2019-04-05T20:19:24.896Z,38.30
2019-04-05T20:22:10.225Z,38.40
2019-04-05T20:24:50.390Z,38.60
2019-04-05T20:27:40.637Z,38.50
2019-04-05T20:33:38.843Z,38.70
2019-04-05T20:36:32.930Z,39.00
2019-04-05T20:39:21.255Z,39.10
2019-04-05T20:42:17.526Z,39.10
2019-04-05T20:45:19.090Z,39.20
2019-04-05T20:48:02.180Z,39.40
2019-04-05T20:51:22.054Z,39.30
2019-04-05T20:54:23.927Z,39.70
2019-04-05T20:56:56.054Z,39.60
2019-04-05T21:00:15.107Z,39.70
2019-04-05T21:03:19.725Z,39.80
2019-04-05T21:06:09.788Z,39.70
2019-04-05T21:08:49.931Z,39.70
2019-04-05T21:11:50.253Z,40.50
2019-04-05T21:14:43.604Z,40.10
2019-04-05T21:17:34.946Z,40.10
2019-04-05T21:20:23.776Z,40.20
2019-04-05T21:23:07.571Z,40.30
2019-04-05T21:26:04.956Z,40.70
2019-04-05T21:28:52.540Z,40.90
2019-04-05T21:31:34.242Z,40.70
2019-04-05T21:34:27.806Z,40.70
2019-04-05T21:37:21.124Z,40.60
2019-04-05T21:40:11.329Z,40.90
2019-04-05T21:43:00.968Z,41.00
2019-04-05T21:45:43.974Z,40.90
2019-04-05T21:48:40.306Z,41.10
2019-04-05T21:51:48.086Z,41.20
2019-04-05T21:54:34.579Z,41.20
2019-04-05T21:57:33.896Z,41.30
2019-04-05T22:00:27.288Z,41.40
2019-04-05T22:03:28.279Z,41.40
2019-04-05T22:06:32.101Z,41.40
2019-04-05T22:09:27.716Z,41.50
2019-04-05T22:12:15.476Z,41.60
2019-04-05T22:15:22.081Z,41.60
2019-04-05T22:18:17.295Z,41.60
2019-04-05T22:21:13.528Z,42.10
2019-04-05T22:24:07.510Z,41.60
2019-04-05T22:27:07.791Z,41.80
2019-04-05T22:30:06.247Z,42.00
2019-04-05T22:33:02.381Z,41.90
2019-04-05T22:35:44.540Z,41.90
2019-04-05T22:38:39.384Z,42.10
2019-04-05T22:41:25.373Z,42.00
2019-04-05T22:44:38.713Z,42.20
2019-04-05T22:47:19.007Z,42.30
2019-04-05T22:50:51.350Z,42.40
2019-04-05T22:53:45.907Z,42.30
2019-04-05T22:56:33.584Z,42.20
2019-04-05T22:59:18.239Z,42.50
2019-04-05T23:02:42.498Z,42.40
2019-04-05T23:05:35.693Z,42.60
2019-04-05T23:08:28.792Z,43.40
2019-04-05T23:11:14.831Z,42.70
2019-04-05T23:14:12.405Z,42.60
2019-04-05T23:16:51.580Z,43.00
2019-04-05T23:19:35.193Z,43.00
2019-04-05T23:22:35.720Z,43.20
2019-04-05T23:25:26.104Z,43.00
2019-04-05T23:28:08.817Z,43.30
2019-04-05T23:30:54.600Z,43.20
2019-04-05T23:33:39.703Z,43.30
2019-04-05T23:36:38.150Z,43.50
2019-04-05T23:39:50.150Z,43.50
2019-04-05T23:42:30.736Z,43.50
2019-04-05T23:45:21.230Z,43.30
2019-04-05T23:48:14.998Z,43.40
2019-04-05T23:51:13.492Z,43.70
2019-04-05T23:54:08.331Z,43.80
2019-04-05T23:57:02.221Z,43.90
2019-04-05T23:59:56.575Z,43.80
